createdAt,value
2022-12-18T00:04:49.347Z,-0.05
2022-12-18T00:09:50.854Z,-0.05
2022-12-18T00:14:52.382Z,-0.05
2022-12-18T00:19:53.880Z,-0.07
2022-12-18T00:24:55.421Z,-0.10
2022-12-18T00:29:56.937Z,-0.13
2022-12-18T00:34:58.519Z,-0.12
2022-12-18T00:40:00.054Z,-0.11
2022-12-18T00:45:01.609Z,-0.10
2022-12-18T00:50:03.846Z,-0.10
2022-12-18T00:55:06.629Z,-0.10
2022-12-18T01:00:11.013Z,-0.08
2022-12-18T01:05:13.449Z,-0.07
2022-12-18T01:10:14.999Z,-0.08
2022-12-18T01:15:16.828Z,-0.08
2022-12-18T01:20:18.517Z,-0.08
2022-12-18T01:25:20.781Z,-0.05
2022-12-18T01:30:22.289Z,-0.06
2022-12-18T01:35:23.833Z,-0.05
2022-12-18T01:40:25.491Z,-0.05
2022-12-18T01:45:29.806Z,-0.05
2022-12-18T01:50:43.059Z,-0.04
2022-12-18T01:55:49.403Z,-0.03
2022-12-18T02:00:51.113Z,-0.01
2022-12-18T02:06:15.920Z,-0.01
2022-12-18T02:11:30.830Z,-0.03
2022-12-18T02:17:13.699Z,-0.03
2022-12-18T02:22:21.599Z,-0.05
2022-12-18T02:27:23.717Z,-0.04
2022-12-18T02:32:33.797Z,-0.06
2022-12-18T02:37:36.834Z,-0.05
2022-12-18T02:42:41.359Z,-0.06
2022-12-18T02:47:48.168Z,-0.03
2022-12-18T02:53:18.394Z,-0.02
2022-12-18T02:58:57.854Z,-0.01
2022-12-18T03:04:18.574Z,-0.01
2022-12-18T03:09:25.601Z,0.01
2022-12-18T03:14:30.298Z,0.01
2022-12-18T03:19:34.207Z,0.02
2022-12-18T03:24:40.452Z,0.03
2022-12-18T03:29:53.677Z,0.04
2022-12-18T03:35:05.822Z,0.05
2022-12-18T03:40:11.676Z,0.07
2022-12-18T03:45:19.661Z,0.09
2022-12-18T03:50:27.538Z,0.09
2022-12-18T03:55:35.505Z,0.07
2022-12-18T04:00:40.516Z,0.03
2022-12-18T04:05:46.645Z,-0.04
2022-12-18T04:10:49.817Z,-0.06
2022-12-18T04:15:52.069Z,-0.08
2022-12-18T04:20:55.277Z,-0.07
2022-12-18T04:25:58.196Z,-0.08
2022-12-18T04:31:29.244Z,-0.07
2022-12-18T04:36:31.604Z,-0.04
2022-12-18T04:41:33.257Z,-0.02
2022-12-18T04:46:35.269Z,0.00
2022-12-18T04:51:37.525Z,0.02
2022-12-18T04:56:39.070Z,0.05
2022-12-18T05:01:40.889Z,0.08
2022-12-18T05:06:42.603Z,0.04
2022-12-18T05:11:44.301Z,0.04
2022-12-18T05:16:47.844Z,0.03
2022-12-18T05:21:49.408Z,0.03
2022-12-18T05:26:50.961Z,0.02
2022-12-18T05:31:52.587Z,0.01
2022-12-18T05:36:54.177Z,0.01
2022-12-18T05:41:55.664Z,0.03
2022-12-18T05:46:57.222Z,0.03
2022-12-18T05:51:58.754Z,0.05
2022-12-18T05:57:00.269Z,0.05
2022-12-18T06:02:01.939Z,0.07
2022-12-18T06:07:04.933Z,0.07
2022-12-18T06:12:06.768Z,0.06
2022-12-18T06:17:08.287Z,0.03
2022-12-18T06:22:09.786Z,0.01
2022-12-18T06:27:11.267Z,-0.01
2022-12-18T06:32:12.850Z,-0.03
2022-12-18T06:37:14.333Z,-0.05
2022-12-18T06:42:15.844Z,-0.03
2022-12-18T06:47:17.407Z,-0.04
2022-12-18T06:52:18.919Z,-0.05
2022-12-18T06:57:20.426Z,-0.07
2022-12-18T07:02:22.082Z,-0.07
2022-12-18T07:07:23.782Z,-0.08
2022-12-18T07:12:25.269Z,-0.09
2022-12-18T07:17:26.985Z,-0.13
2022-12-18T07:22:28.555Z,-0.14
2022-12-18T07:27:30.053Z,-0.15
2022-12-18T07:32:31.727Z,-0.17
2022-12-18T07:37:33.207Z,-0.16
2022-12-18T07:42:35.763Z,-0.18
2022-12-18T07:47:37.476Z,-0.17
2022-12-18T07:52:39.032Z,-0.17
2022-12-18T07:58:00.799Z,-0.15
2022-12-18T08:03:02.800Z,-0.13
2022-12-18T08:08:04.493Z,-0.13
2022-12-18T08:13:05.997Z,-0.11
2022-12-18T08:18:11.447Z,-0.08
2022-12-18T08:23:15.686Z,-0.05
2022-12-18T08:28:17.508Z,-0.02
2022-12-18T08:33:19.091Z,0.01
2022-12-18T08:38:20.615Z,0.02
2022-12-18T08:43:41.414Z,0.04
2022-12-18T08:48:43.318Z,0.07
2022-12-18T08:53:45.489Z,0.08
2022-12-18T08:58:47.030Z,0.09
2022-12-18T09:03:50.144Z,0.11
2022-12-18T09:08:51.670Z,0.14
2022-12-18T09:13:54.867Z,0.15
2022-12-18T09:19:00.507Z,0.17
2022-12-18T09:24:02.207Z,0.20
2022-12-18T09:29:04.606Z,0.24
2022-12-18T09:34:06.203Z,0.27
2022-12-18T09:39:08.823Z,0.29
2022-12-18T09:44:28.075Z,0.32
2022-12-18T09:49:34.212Z,0.35
2022-12-18T09:54:47.224Z,0.39
2022-12-18T10:00:04.291Z,0.41
2022-12-18T10:05:16.480Z,0.41
2022-12-18T10:10:32.777Z,0.42
2022-12-18T10:15:46.170Z,0.41
2022-12-18T10:20:52.586Z,0.46
2022-12-18T10:25:57.141Z,0.50
2022-12-18T10:30:59.402Z,0.52
2022-12-18T10:36:01.581Z,0.56
2022-12-18T10:41:06.520Z,0.57
2022-12-18T10:46:08.834Z,0.57
2022-12-18T10:51:12.915Z,0.56
2022-12-18T10:56:21.454Z,0.61
2022-12-18T11:01:23.500Z,0.65
2022-12-18T11:06:26.158Z,0.69
2022-12-18T11:11:28.653Z,0.68
2022-12-18T11:16:35.578Z,0.71
2022-12-18T11:21:41.876Z,0.75
2022-12-18T11:26:44.337Z,0.80
2022-12-18T11:31:45.988Z,0.81
2022-12-18T11:36:49.143Z,0.84
2022-12-18T11:42:11.635Z,0.91
2022-12-18T11:47:50.979Z,0.95
2022-12-18T11:52:56.727Z,0.95
2022-12-18T11:58:15.487Z,0.94
2022-12-18T12:03:25.026Z,0.96
2022-12-18T12:08:45.467Z,1.01
2022-12-18T12:14:22.200Z,1.02
2022-12-18T12:19:52.623Z,1.01
2022-12-18T12:25:19.813Z,0.98
2022-12-18T12:30:40.525Z,0.94
2022-12-18T12:36:21.957Z,0.96
2022-12-18T12:41:46.658Z,0.98
2022-12-18T12:46:49.997Z,0.99
2022-12-18T12:52:01.638Z,1.00
2022-12-18T12:57:18.503Z,0.98
2022-12-18T13:02:33.501Z,0.98
2022-12-18T13:07:59.347Z,1.01
2022-12-18T13:13:18.625Z,1.03
2022-12-18T13:18:26.346Z,1.05
2022-12-18T13:23:30.874Z,1.08
2022-12-18T13:28:47.809Z,1.08
2022-12-18T13:39:26.522Z,1.05
2022-12-18T13:44:38.697Z,1.03
2022-12-18T13:49:44.830Z,1.03
2022-12-18T13:54:52.051Z,1.00
2022-12-18T13:59:53.894Z,0.97
2022-12-18T14:04:56.445Z,0.95
2022-12-18T14:10:12.671Z,0.93
2022-12-18T14:15:34.700Z,0.86
2022-12-18T14:20:37.826Z,0.88
2022-12-18T14:25:39.398Z,0.83
2022-12-18T14:30:46.819Z,0.77
2022-12-18T14:36:01.608Z,0.73
2022-12-18T14:41:13.602Z,0.63
2022-12-18T14:46:40.476Z,0.54
2022-12-18T14:51:49.401Z,0.46
2022-12-18T14:56:58.044Z,0.41
2022-12-18T15:02:19.804Z,0.36
2022-12-18T15:07:24.213Z,0.30
2022-12-18T15:12:35.406Z,0.24
2022-12-18T15:17:37.011Z,0.19
2022-12-18T15:22:38.675Z,0.14
2022-12-18T15:27:47.632Z,0.08
2022-12-18T15:32:51.135Z,0.03
2022-12-18T15:37:53.299Z,-0.02
2022-12-18T15:43:15.114Z,-0.10
2022-12-18T15:48:23.835Z,-0.15
2022-12-18T15:53:28.990Z,-0.21
2022-12-18T15:58:30.512Z,-0.26
2022-12-18T16:03:32.328Z,-0.30
2022-12-18T16:08:34.062Z,-0.34
2022-12-18T16:13:35.574Z,-0.39
2022-12-18T16:18:37.061Z,-0.45
2022-12-18T16:23:39.090Z,-0.48
2022-12-18T16:28:45.278Z,-0.52
2022-12-18T16:33:49.750Z,-0.56
2022-12-18T16:38:51.234Z,-0.58
2022-12-18T16:43:54.973Z,-0.60
2022-12-18T16:48:59.422Z,-0.62
2022-12-18T16:54:02.982Z,-0.64
2022-12-18T16:59:09.937Z,-0.70
2022-12-18T17:04:11.579Z,-0.72
2022-12-18T17:09:15.791Z,-0.75
2022-12-18T17:14:20.483Z,-0.77
2022-12-18T17:19:22.783Z,-0.80
2022-12-18T17:24:24.503Z,-0.82
2022-12-18T17:29:26.046Z,-0.85
2022-12-18T17:34:28.330Z,-0.90
2022-12-18T17:39:30.750Z,-0.92
2022-12-18T17:44:34.287Z,-0.95
2022-12-18T17:49:36.134Z,-0.96
2022-12-18T17:54:39.843Z,-0.99
2022-12-18T17:59:41.886Z,-1.04
2022-12-18T18:04:43.551Z,-1.06
2022-12-18T18:09:45.140Z,-1.08
2022-12-18T18:14:47.014Z,-1.11
2022-12-18T18:19:49.500Z,-1.16
2022-12-18T18:24:51.344Z,-1.18
2022-12-18T18:29:52.967Z,-1.21
2022-12-18T18:34:54.520Z,-1.25
2022-12-18T18:39:56.885Z,-1.25
2022-12-18T18:44:58.462Z,-1.25
2022-12-18T18:50:00.202Z,-1.23
2022-12-18T18:55:13.398Z,-1.22
2022-12-18T19:00:18.308Z,-1.20
2022-12-18T19:05:20.003Z,-1.21
2022-12-18T19:10:21.496Z,-1.22
2022-12-18T19:15:23.389Z,-1.23
2022-12-18T19:20:25.186Z,-1.25
2022-12-18T19:25:38.097Z,-1.26
2022-12-18T19:30:43.419Z,-1.29
2022-12-18T19:35:44.981Z,-1.33
2022-12-18T19:40:46.792Z,-1.38
2022-12-18T19:45:54.874Z,-1.38
2022-12-18T19:50:56.553Z,-1.40
2022-12-18T19:55:58.365Z,-1.38
2022-12-18T20:00:59.989Z,-1.37
2022-12-18T20:06:27.105Z,-1.38
2022-12-18T20:11:30.013Z,-1.40
2022-12-18T20:16:31.714Z,-1.39
2022-12-18T20:21:33.473Z,-1.38
2022-12-18T20:26:35.056Z,-1.36
2022-12-18T20:31:36.673Z,-1.35
2022-12-18T20:36:38.729Z,-1.33
2022-12-18T20:41:42.930Z,-1.34
2022-12-18T20:46:44.486Z,-1.37
2022-12-18T20:51:46.298Z,-1.39
2022-12-18T20:56:48.031Z,-1.40
2022-12-18T21:01:49.902Z,-1.41
2022-12-18T21:07:00.577Z,-1.40
2022-12-18T21:12:22.590Z,-1.41
2022-12-18T21:17:24.302Z,-1.40
2022-12-18T21:22:28.772Z,-1.39
2022-12-18T21:27:30.321Z,-1.36
2022-12-18T21:32:33.657Z,-1.34
2022-12-18T21:37:35.329Z,-1.33
2022-12-18T21:42:55.715Z,-1.32
2022-12-18T21:47:57.528Z,-1.35
2022-12-18T21:52:59.096Z,-1.34
2022-12-18T21:58:00.677Z,-1.32
2022-12-18T22:03:17.383Z,-1.31
2022-12-18T22:08:20.729Z,-1.27
2022-12-18T22:13:22.434Z,-1.22
2022-12-18T22:18:24.044Z,-1.20
2022-12-18T22:23:25.603Z,-1.17
2022-12-18T22:28:45.861Z,-1.16
2022-12-18T22:33:47.403Z,-1.15
2022-12-18T22:38:49.023Z,-1.15
2022-12-18T22:43:50.669Z,-1.13
2022-12-18T22:48:52.251Z,-1.11
2022-12-18T22:53:54.079Z,-1.10
2022-12-18T22:58:56.571Z,-1.06
2022-12-18T23:04:00.015Z,-1.04
2022-12-18T23:09:01.586Z,-1.02
2022-12-18T23:14:03.487Z,-0.99
2022-12-18T23:19:05.736Z,-0.95
2022-12-18T23:24:07.803Z,-0.94
2022-12-18T23:29:09.492Z,-0.89
2022-12-18T23:34:13.886Z,-0.85
2022-12-18T23:39:28.827Z,-0.86
2022-12-18T23:44:30.772Z,-0.83
2022-12-18T23:49:32.440Z,-0.81
2022-12-18T23:54:34.152Z,-0.80
2022-12-18T23:59:35.660Z,-0.80
